createdAt,value
2023-01-19T00:01:29.352Z,4.47
2023-01-19T00:03:58.071Z,4.07
2023-01-19T00:06:26.262Z,4.10
2023-01-19T00:08:54.384Z,4.17
2023-01-19T00:11:22.782Z,4.00
2023-01-19T00:13:53.679Z,4.23
2023-01-19T00:16:23.257Z,4.17
2023-01-19T00:18:51.946Z,4.23
2023-01-19T00:21:19.993Z,4.00
2023-01-19T00:23:48.528Z,4.80
2023-01-19T00:26:17.342Z,4.57
2023-01-19T00:28:45.581Z,4.33
2023-01-19T00:31:15.055Z,4.20
2023-01-19T00:33:43.166Z,4.37
2023-01-19T00:36:11.730Z,3.90
2023-01-19T00:38:40.173Z,4.37
2023-01-19T00:41:08.181Z,3.87
2023-01-19T00:43:35.230Z,4.30
2023-01-19T00:46:03.312Z,4.40
2023-01-19T00:48:32.830Z,4.37
2023-01-19T00:51:01.188Z,4.80
2023-01-19T00:53:32.591Z,4.43
2023-01-19T00:56:00.704Z,4.93
2023-01-19T00:58:28.801Z,4.77
2023-01-19T01:00:57.922Z,4.23
2023-01-19T01:03:28.255Z,4.47
2023-01-19T01:05:58.142Z,4.90
2023-01-19T01:08:26.315Z,4.87
2023-01-19T01:10:54.352Z,4.80
2023-01-19T01:13:24.231Z,5.10
2023-01-19T01:15:54.599Z,4.67
2023-01-19T01:18:22.792Z,4.47
2023-01-19T01:20:51.153Z,5.87
2023-01-19T01:23:22.769Z,4.23
2023-01-19T01:25:50.953Z,4.73
2023-01-19T01:28:19.060Z,5.00
2023-01-19T01:30:47.155Z,4.47
2023-01-19T01:33:15.608Z,4.90
2023-01-19T01:36:03.636Z,5.40
2023-01-19T01:38:33.087Z,5.47
2023-01-19T01:41:01.146Z,5.47
2023-01-19T01:43:45.574Z,5.50
2023-01-19T01:46:15.535Z,4.93
2023-01-19T01:48:45.844Z,5.60
2023-01-19T01:51:27.997Z,4.80
2023-01-19T01:54:10.102Z,6.20
2023-01-19T01:56:40.221Z,5.93
2023-01-19T01:59:09.475Z,5.50
2023-01-19T02:01:55.148Z,5.93
2023-01-19T02:04:23.743Z,5.50
2023-01-19T02:07:08.977Z,5.63
2023-01-19T02:09:56.513Z,5.70
2023-01-19T02:12:42.231Z,5.60
2023-01-19T02:15:17.037Z,5.77
2023-01-19T02:17:45.111Z,5.70
2023-01-19T02:20:13.484Z,5.93
2023-01-19T02:22:45.753Z,5.87
2023-01-19T02:25:15.183Z,5.40
2023-01-19T02:27:43.664Z,5.73
2023-01-19T02:30:12.641Z,6.17
2023-01-19T02:32:40.697Z,6.03
2023-01-19T02:35:09.175Z,5.73
2023-01-19T02:37:40.163Z,6.00
2023-01-19T02:40:10.530Z,5.43
2023-01-19T02:42:41.029Z,5.07
2023-01-19T02:45:12.740Z,5.47
2023-01-19T02:47:41.169Z,5.83
2023-01-19T02:50:37.010Z,5.43
2023-01-19T02:53:10.334Z,5.33
2023-01-19T02:55:38.658Z,5.90
2023-01-19T02:58:09.086Z,5.40
2023-01-19T03:00:40.067Z,5.90
2023-01-19T03:03:16.577Z,5.67
2023-01-19T03:05:54.879Z,5.00
2023-01-19T03:08:29.577Z,5.13
2023-01-19T03:11:01.218Z,5.30
2023-01-19T03:13:32.678Z,5.27
2023-01-19T03:16:01.973Z,5.10
2023-01-19T03:18:30.470Z,5.30
2023-01-19T03:20:59.730Z,6.47
2023-01-19T03:23:29.212Z,5.67
2023-01-19T03:25:57.575Z,5.60
2023-01-19T03:28:25.671Z,5.50
2023-01-19T03:30:57.258Z,5.83
2023-01-19T03:33:27.479Z,5.80
2023-01-19T03:35:58.513Z,5.70
2023-01-19T03:38:26.940Z,6.27
2023-01-19T03:40:55.282Z,5.97
2023-01-19T03:43:23.602Z,5.07
2023-01-19T03:45:51.628Z,5.63
2023-01-19T03:48:21.483Z,5.20
2023-01-19T03:50:49.539Z,5.83
2023-01-19T03:53:17.986Z,5.10
2023-01-19T03:55:47.335Z,5.30
2023-01-19T03:58:15.585Z,6.13
2023-01-19T04:00:43.659Z,6.07
2023-01-19T04:03:13.588Z,5.67
2023-01-19T04:05:43.337Z,6.30
2023-01-19T04:08:11.960Z,5.90
2023-01-19T04:10:40.066Z,6.20
2023-01-19T04:13:08.155Z,5.73
2023-01-19T04:15:36.261Z,5.47
2023-01-19T04:18:05.444Z,5.67
2023-01-19T04:20:33.892Z,6.17
2023-01-19T04:23:03.754Z,5.60
2023-01-19T04:25:31.969Z,5.43
2023-01-19T04:28:00.301Z,5.73
2023-01-19T04:30:28.566Z,5.80
2023-01-19T04:32:57.015Z,5.40
2023-01-19T04:35:25.089Z,6.33
2023-01-19T04:37:53.124Z,5.37
2023-01-19T04:40:22.563Z,5.90
2023-01-19T04:42:51.010Z,6.00
2023-01-19T04:45:19.342Z,5.37
2023-01-19T04:47:47.415Z,6.20
2023-01-19T04:50:15.503Z,5.43
2023-01-19T04:52:43.560Z,5.77
2023-01-19T04:55:12.014Z,5.83
2023-01-19T04:57:41.570Z,5.97
2023-01-19T05:00:11.119Z,5.70
2023-01-19T05:02:39.242Z,5.67
2023-01-19T05:05:07.641Z,6.63
2023-01-19T05:07:35.905Z,5.83
2023-01-19T05:10:04.051Z,5.27
2023-01-19T05:12:32.437Z,5.53
2023-01-19T05:15:02.821Z,5.00
2023-01-19T05:17:30.989Z,5.07
2023-01-19T05:19:59.024Z,5.20
2023-01-19T05:22:27.062Z,5.57
2023-01-19T05:24:55.111Z,5.23
2023-01-19T05:27:23.463Z,5.23
2023-01-19T05:29:52.102Z,5.20
2023-01-19T05:32:21.553Z,5.57
2023-01-19T05:34:49.631Z,5.60
2023-01-19T05:37:17.787Z,5.60
2023-01-19T05:39:46.161Z,5.20
2023-01-19T05:42:14.178Z,5.03
2023-01-19T05:44:42.256Z,5.50
2023-01-19T05:47:10.354Z,4.40
2023-01-19T05:49:39.755Z,5.03
2023-01-19T05:52:08.142Z,5.33
2023-01-19T05:54:36.228Z,5.17
2023-01-19T05:57:04.903Z,4.77
2023-01-19T05:59:32.960Z,5.40
2023-01-19T06:02:01.158Z,5.30
2023-01-19T06:04:29.196Z,4.97
2023-01-19T06:06:59.024Z,5.23
2023-01-19T06:09:27.087Z,4.93
2023-01-19T06:11:56.634Z,5.23
2023-01-19T06:14:25.167Z,5.83
2023-01-19T06:16:53.224Z,5.50
2023-01-19T06:19:21.299Z,5.53
2023-01-19T06:21:52.378Z,4.80
2023-01-19T06:24:23.155Z,5.60
2023-01-19T06:26:51.263Z,4.63
2023-01-19T06:29:19.307Z,4.80
2023-01-19T06:31:47.407Z,5.27
2023-01-19T06:34:15.779Z,5.20
2023-01-19T06:36:43.850Z,5.07
2023-01-19T06:39:12.066Z,5.53
2023-01-19T06:41:41.547Z,5.07
2023-01-19T06:44:09.587Z,4.57
2023-01-19T06:46:38.020Z,5.67
2023-01-19T06:49:06.157Z,5.07
2023-01-19T06:51:34.262Z,5.43
2023-01-19T06:54:02.570Z,6.33
2023-01-19T06:56:30.661Z,5.30
2023-01-19T06:59:00.482Z,5.37
2023-01-19T07:01:28.919Z,6.00
2023-01-19T07:03:57.257Z,5.60
2023-01-19T07:06:25.331Z,5.43
2023-01-19T07:08:53.380Z,5.17
2023-01-19T07:11:29.463Z,5.70
2023-01-19T07:14:03.456Z,5.07
2023-01-19T07:16:31.891Z,5.50
2023-01-19T07:18:59.969Z,6.30
2023-01-19T07:21:29.330Z,5.10
2023-01-19T07:23:57.891Z,4.87
2023-01-19T07:26:27.963Z,5.33
2023-01-19T07:28:56.316Z,5.20
2023-01-19T07:31:25.927Z,5.53
2023-01-19T07:33:54.041Z,5.47
2023-01-19T07:36:22.059Z,5.77
2023-01-19T07:42:36.967Z,5.17
2023-01-19T07:45:06.017Z,5.73
2023-01-19T07:47:35.546Z,5.33
2023-01-19T07:50:03.664Z,5.40
2023-01-19T07:52:31.819Z,6.00
2023-01-19T07:55:00.046Z,5.37
2023-01-19T07:57:28.628Z,5.97
2023-01-19T07:59:56.949Z,6.17
2023-01-19T08:02:25.652Z,5.77
2023-01-19T08:04:55.382Z,6.20
2023-01-19T08:07:23.512Z,5.87
2023-01-19T08:09:51.634Z,7.10
2023-01-19T08:12:20.056Z,6.60
2023-01-19T08:14:48.354Z,6.63
2023-01-19T08:17:17.168Z,5.67
2023-01-19T08:19:45.317Z,5.63
2023-01-19T08:22:14.867Z,6.77
2023-01-19T08:24:43.307Z,6.70
2023-01-19T08:27:14.086Z,6.17
2023-01-19T08:29:42.160Z,6.87
2023-01-19T08:32:10.354Z,6.80
2023-01-19T08:34:38.539Z,7.57
2023-01-19T08:37:06.683Z,7.60
2023-01-19T08:39:36.486Z,7.63
2023-01-19T08:42:05.832Z,7.80
2023-01-19T08:44:34.026Z,7.07
2023-01-19T08:47:02.251Z,6.97
2023-01-19T08:49:30.530Z,7.20
2023-01-19T08:51:58.630Z,6.73
2023-01-19T08:54:26.721Z,7.93
2023-01-19T08:56:56.440Z,7.33
2023-01-19T08:59:24.526Z,6.83
2023-01-19T09:01:52.771Z,8.17
2023-01-19T09:04:20.935Z,7.37
2023-01-19T09:06:49.381Z,7.97
2023-01-19T09:09:17.538Z,7.77
2023-01-19T09:11:45.666Z,8.40
2023-01-19T09:14:15.233Z,8.23
2023-01-19T09:16:43.447Z,9.20
2023-01-19T09:19:11.893Z,8.03
2023-01-19T09:21:39.989Z,7.30
2023-01-19T09:24:09.324Z,9.03
2023-01-19T09:26:39.254Z,8.50
2023-01-19T09:29:07.332Z,8.67
2023-01-19T09:31:36.859Z,8.83
2023-01-19T09:34:05.291Z,8.67
2023-01-19T09:36:33.544Z,8.83
2023-01-19T09:39:01.668Z,9.33
2023-01-19T09:41:29.811Z,8.90
2023-01-19T09:43:58.389Z,9.17
2023-01-19T09:46:28.986Z,8.13
2023-01-19T09:48:59.418Z,8.67
2023-01-19T09:51:28.232Z,8.53
2023-01-19T09:53:58.913Z,9.07
2023-01-19T09:56:27.759Z,10.13
2023-01-19T09:58:55.902Z,9.17
2023-01-19T10:01:44.828Z,9.30
2023-01-19T10:04:29.754Z,8.07
2023-01-19T10:07:06.670Z,7.37
2023-01-19T10:09:37.177Z,8.73
2023-01-19T10:12:08.965Z,8.70
2023-01-19T10:14:41.142Z,8.80
2023-01-19T10:17:15.441Z,9.63
2023-01-19T10:19:46.817Z,9.20
2023-01-19T10:22:20.639Z,8.97
2023-01-19T10:24:48.777Z,7.47
2023-01-19T10:27:21.823Z,9.23
2023-01-19T10:29:49.946Z,9.67
2023-01-19T10:32:20.054Z,9.33
2023-01-19T10:34:49.759Z,8.57
2023-01-19T10:37:20.921Z,7.50
2023-01-19T10:39:53.721Z,9.00
2023-01-19T10:42:22.357Z,8.47
2023-01-19T10:44:50.715Z,8.03
2023-01-19T10:47:20.035Z,8.73
2023-01-19T10:49:49.661Z,9.13
2023-01-19T10:52:22.829Z,8.90
2023-01-19T10:54:51.256Z,8.40
2023-01-19T10:57:24.901Z,8.77
2023-01-19T10:59:53.085Z,8.70
2023-01-19T11:02:22.337Z,8.80
2023-01-19T11:04:53.190Z,8.40
2023-01-19T11:07:22.674Z,8.60
2023-01-19T11:09:50.882Z,7.90
2023-01-19T11:12:20.193Z,8.27
2023-01-19T11:14:48.828Z,8.97
2023-01-19T11:17:20.170Z,7.83
2023-01-19T11:19:59.066Z,7.87
2023-01-19T11:22:29.452Z,9.43
2023-01-19T11:25:01.179Z,8.73
2023-01-19T11:27:29.246Z,8.47
2023-01-19T11:30:05.307Z,8.10
2023-01-19T11:32:36.953Z,8.50
2023-01-19T11:35:34.834Z,8.20
2023-01-19T11:38:15.976Z,8.90
2023-01-19T11:40:44.132Z,8.77
2023-01-19T11:43:12.596Z,9.37
2023-01-19T11:45:40.710Z,8.90
2023-01-19T11:48:08.789Z,8.93
2023-01-19T11:50:41.771Z,8.87
2023-01-19T11:53:13.128Z,9.40
2023-01-19T11:55:42.937Z,9.77
2023-01-19T11:58:11.658Z,10.13
2023-01-19T12:00:41.431Z,10.70
2023-01-19T12:03:13.545Z,11.30
2023-01-19T12:05:45.292Z,10.30
2023-01-19T12:08:17.018Z,10.17
2023-01-19T12:10:45.938Z,11.43
2023-01-19T12:13:20.974Z,10.53
2023-01-19T12:15:49.165Z,9.33
2023-01-19T12:18:19.776Z,9.57
2023-01-19T12:20:50.751Z,8.97
2023-01-19T12:23:26.825Z,9.13
2023-01-19T12:26:02.634Z,8.27
2023-01-19T12:28:31.551Z,8.30
2023-01-19T12:31:00.181Z,8.43
2023-01-19T12:33:35.989Z,7.63
2023-01-19T12:36:07.080Z,7.47
2023-01-19T12:38:37.460Z,6.17
2023-01-19T12:41:23.997Z,6.73
2023-01-19T12:44:23.260Z,7.00
2023-01-19T12:46:54.528Z,5.73
2023-01-19T12:49:26.268Z,6.80
2023-01-19T12:51:57.303Z,7.50
2023-01-19T12:54:28.650Z,6.43
2023-01-19T12:57:00.536Z,7.00
2023-01-19T12:59:29.135Z,6.33
2023-01-19T13:02:30.496Z,6.37
2023-01-19T13:05:23.517Z,6.93
2023-01-19T13:08:21.290Z,6.60
2023-01-19T13:11:13.967Z,6.43
2023-01-19T13:13:42.366Z,5.87
2023-01-19T13:16:51.722Z,6.07
2023-01-19T13:19:19.915Z,6.37
2023-01-19T13:21:48.596Z,6.40
2023-01-19T13:24:18.655Z,5.93
2023-01-19T13:26:55.356Z,6.03
2023-01-19T13:29:26.320Z,6.10
2023-01-19T13:31:56.242Z,6.97
2023-01-19T13:34:25.532Z,6.37
2023-01-19T13:36:54.243Z,6.97
2023-01-19T13:39:33.256Z,6.83
2023-01-19T13:42:02.779Z,6.97
2023-01-19T13:44:31.817Z,7.20
2023-01-19T13:46:59.992Z,6.43
2023-01-19T13:49:29.774Z,6.43
2023-01-19T13:52:08.450Z,6.00
2023-01-19T13:54:37.982Z,6.13
2023-01-19T13:57:06.096Z,6.70
2023-01-19T13:59:34.461Z,6.23
2023-01-19T14:02:05.831Z,6.43
2023-01-19T14:04:34.617Z,6.00
2023-01-19T14:07:04.002Z,5.73
2023-01-19T14:09:32.193Z,6.13
2023-01-19T14:12:09.981Z,5.63
2023-01-19T14:14:38.209Z,5.70
2023-01-19T14:17:06.304Z,5.30
2023-01-19T14:19:49.255Z,5.50
2023-01-19T14:22:17.446Z,5.30
2023-01-19T14:24:45.602Z,5.53
2023-01-19T14:27:25.284Z,5.33
2023-01-19T14:29:54.859Z,5.23
2023-01-19T14:32:23.766Z,5.17
2023-01-19T14:34:53.771Z,5.63
2023-01-19T14:37:23.826Z,4.90
2023-01-19T14:39:52.830Z,4.57
2023-01-19T14:42:25.095Z,5.57
2023-01-19T14:44:53.728Z,4.97
2023-01-19T14:47:30.553Z,5.23
2023-01-19T14:50:01.552Z,5.20
2023-01-19T14:52:31.734Z,4.47
2023-01-19T14:54:59.859Z,4.53
2023-01-19T14:57:29.419Z,5.47
2023-01-19T14:59:57.575Z,4.90
2023-01-19T15:02:26.069Z,5.23
2023-01-19T15:04:57.859Z,4.57
2023-01-19T15:07:26.177Z,6.33
2023-01-19T15:09:54.373Z,5.53
2023-01-19T15:12:24.083Z,5.80
2023-01-19T15:14:53.684Z,5.27
2023-01-19T15:17:25.649Z,5.43
2023-01-19T15:19:55.395Z,5.30
2023-01-19T15:22:23.645Z,4.70
2023-01-19T15:24:52.402Z,4.30
2023-01-19T15:27:21.711Z,4.17
2023-01-19T15:29:50.147Z,5.10
2023-01-19T15:32:19.621Z,4.73
2023-01-19T15:34:48.045Z,4.47
2023-01-19T15:37:16.520Z,4.10
2023-01-19T15:39:44.595Z,4.40
2023-01-19T15:42:13.587Z,4.10
2023-01-19T15:44:41.993Z,4.10
2023-01-19T15:47:10.507Z,4.13
2023-01-19T15:49:40.092Z,4.67
2023-01-19T15:52:08.211Z,4.73
2023-01-19T15:54:36.349Z,5.13
2023-01-19T15:57:04.887Z,4.70
2023-01-19T15:59:33.012Z,5.00
2023-01-19T16:02:01.252Z,4.80
2023-01-19T16:04:29.496Z,4.20
2023-01-19T16:06:59.030Z,5.27
2023-01-19T16:09:27.134Z,4.57
2023-01-19T16:11:57.150Z,4.80
2023-01-19T16:14:25.268Z,4.87
2023-01-19T16:16:53.379Z,4.53
2023-01-19T16:19:21.516Z,4.77
2023-01-19T16:21:49.660Z,4.73
2023-01-19T16:24:19.492Z,4.47
2023-01-19T16:26:47.689Z,4.40
2023-01-19T16:29:15.866Z,5.00
2023-01-19T16:31:45.530Z,5.17
2023-01-19T16:34:13.808Z,4.57
2023-01-19T16:36:42.311Z,5.13
2023-01-19T16:39:12.177Z,4.90
2023-01-19T16:41:41.796Z,4.80
2023-01-19T16:44:11.099Z,4.60
2023-01-19T16:46:40.547Z,4.67
2023-01-19T16:49:12.022Z,6.70
2023-01-19T16:51:40.172Z,4.60
2023-01-19T16:54:08.287Z,5.17
2023-01-19T16:56:36.491Z,5.17
2023-01-19T16:59:06.047Z,4.27
2023-01-19T17:01:34.375Z,5.17
2023-01-19T17:04:03.136Z,4.90
2023-01-19T17:06:31.756Z,4.83
2023-01-19T17:09:00.216Z,4.23
2023-01-19T17:11:29.196Z,4.50
2023-01-19T17:13:57.928Z,5.80
2023-01-19T17:16:28.190Z,5.43
2023-01-19T17:18:57.661Z,5.13
2023-01-19T17:21:25.783Z,4.90
2023-01-19T17:23:54.651Z,5.37
2023-01-19T17:26:22.952Z,5.37
2023-01-19T17:28:51.064Z,5.77
2023-01-19T17:31:20.709Z,5.63
2023-01-19T17:33:50.933Z,5.53
2023-01-19T17:36:22.361Z,5.53
2023-01-19T17:38:50.833Z,5.67
2023-01-19T17:41:20.151Z,6.10
2023-01-19T17:43:50.436Z,6.30
2023-01-19T17:46:18.679Z,6.13
2023-01-19T17:48:53.374Z,5.97
2023-01-19T17:51:22.954Z,6.07
2023-01-19T17:53:51.416Z,6.63
2023-01-19T17:56:21.628Z,6.07
2023-01-19T17:58:49.931Z,6.17
2023-01-19T18:01:19.604Z,6.90
2023-01-19T18:03:47.890Z,6.33
2023-01-19T18:06:17.469Z,6.47
2023-01-19T18:08:47.307Z,5.43
2023-01-19T18:11:15.747Z,6.73
2023-01-19T18:13:45.174Z,7.00
2023-01-19T18:16:14.912Z,6.87
2023-01-19T18:18:44.134Z,6.30
2023-01-19T18:21:13.066Z,6.93
2023-01-19T18:23:43.372Z,6.13
2023-01-19T18:26:12.871Z,7.00
2023-01-19T18:28:41.468Z,6.37
2023-01-19T18:31:09.878Z,6.57
2023-01-19T18:33:38.168Z,6.50
2023-01-19T18:36:06.960Z,6.30
2023-01-19T18:38:35.124Z,6.77
2023-01-19T18:41:05.761Z,6.33
2023-01-19T18:43:33.949Z,6.53
2023-01-19T18:46:02.187Z,7.03
2023-01-19T18:48:30.380Z,6.73
2023-01-19T18:51:03.255Z,7.00
2023-01-19T18:53:32.075Z,7.03
2023-01-19T18:56:01.905Z,6.53
2023-01-19T18:58:31.865Z,7.17
2023-01-19T19:01:00.307Z,6.93
2023-01-19T19:03:29.030Z,7.20
2023-01-19T19:05:57.275Z,7.50
2023-01-19T19:08:25.792Z,6.73
2023-01-19T19:10:53.889Z,6.70
2023-01-19T19:13:22.072Z,7.03
2023-01-19T19:15:52.644Z,6.50
2023-01-19T19:18:20.942Z,6.57
2023-01-19T19:20:49.469Z,8.20
2023-01-19T19:23:17.652Z,6.63
2023-01-19T19:25:45.924Z,7.40
2023-01-19T19:28:14.111Z,7.57
2023-01-19T19:30:42.394Z,8.10
2023-01-19T19:33:12.267Z,8.07
2023-01-19T19:35:40.461Z,7.67
2023-01-19T19:38:08.600Z,7.53
2023-01-19T19:40:36.702Z,7.50
2023-01-19T19:43:04.808Z,8.00
2023-01-19T19:45:32.963Z,7.60
2023-01-19T19:48:01.408Z,8.57
2023-01-19T19:50:30.908Z,7.60
2023-01-19T19:52:59.136Z,7.50
2023-01-19T19:55:27.398Z,8.03
2023-01-19T19:57:55.960Z,7.47
2023-01-19T20:00:24.218Z,7.77
2023-01-19T20:02:52.398Z,7.50
2023-01-19T20:05:20.502Z,7.50
2023-01-19T20:07:50.157Z,8.47
2023-01-19T20:10:18.695Z,7.83
2023-01-19T20:12:46.808Z,7.77
2023-01-19T20:15:15.093Z,8.20
2023-01-19T20:17:43.236Z,7.60
2023-01-19T20:20:13.186Z,7.43
2023-01-19T20:22:41.462Z,7.87
2023-01-19T20:25:11.368Z,8.43
2023-01-19T20:27:39.457Z,8.20
2023-01-19T20:30:14.432Z,8.03
2023-01-19T20:32:43.402Z,7.87
2023-01-19T20:35:12.993Z,7.80
2023-01-19T20:37:41.428Z,8.60
2023-01-19T20:40:11.429Z,8.20
2023-01-19T20:42:41.385Z,8.60
2023-01-19T20:45:09.911Z,8.00
2023-01-19T20:47:38.224Z,9.27
2023-01-19T20:50:07.438Z,8.30
2023-01-19T20:52:35.847Z,8.27
2023-01-19T20:55:04.474Z,8.87
2023-01-19T20:57:34.029Z,8.50
2023-01-19T21:00:02.188Z,8.50
2023-01-19T21:02:30.536Z,8.67
2023-01-19T21:04:58.674Z,9.30
2023-01-19T21:07:26.948Z,8.77
2023-01-19T21:09:55.466Z,9.63
2023-01-19T21:12:23.678Z,9.10
2023-01-19T21:14:53.298Z,9.00
2023-01-19T21:17:21.466Z,8.87
2023-01-19T21:19:49.754Z,8.60
2023-01-19T21:22:18.013Z,10.10
2023-01-19T21:24:47.531Z,9.27
2023-01-19T21:27:15.768Z,9.10
2023-01-19T21:29:44.160Z,8.97
2023-01-19T21:32:21.378Z,8.87
2023-01-19T21:34:49.546Z,9.23
2023-01-19T21:37:17.974Z,9.03
2023-01-19T21:39:46.604Z,9.33
2023-01-19T21:42:14.770Z,9.13
2023-01-19T21:44:42.940Z,8.87
2023-01-19T21:47:11.967Z,9.23
2023-01-19T21:49:41.889Z,9.63
2023-01-19T21:52:10.063Z,8.67
2023-01-19T21:54:38.244Z,8.70
2023-01-19T21:57:06.406Z,9.50
2023-01-19T21:59:34.589Z,8.97
2023-01-19T22:02:02.940Z,9.80
2023-01-19T22:04:31.543Z,8.90
2023-01-19T22:07:01.189Z,8.73
2023-01-19T22:09:29.297Z,9.33
2023-01-19T22:11:57.437Z,8.43
2023-01-19T22:14:25.611Z,9.07
2023-01-19T22:16:54.228Z,9.03
2023-01-19T22:19:22.855Z,9.00
2023-01-19T22:21:50.967Z,8.63
2023-01-19T22:24:20.535Z,9.37
2023-01-19T22:26:48.702Z,10.00
2023-01-19T22:29:16.875Z,9.90
2023-01-19T22:31:45.899Z,9.33
2023-01-19T22:34:15.872Z,8.87
2023-01-19T22:36:44.140Z,9.07
2023-01-19T22:39:12.966Z,10.13
2023-01-19T22:41:43.279Z,9.93
2023-01-19T22:44:12.598Z,9.90
2023-01-19T22:46:41.045Z,9.93
2023-01-19T22:49:09.338Z,10.33
2023-01-19T22:51:37.617Z,9.20
2023-01-19T22:54:05.916Z,8.83
2023-01-19T22:56:50.533Z,9.33
2023-01-19T22:59:18.959Z,9.27
2023-01-19T23:01:47.318Z,9.83
2023-01-19T23:04:16.139Z,9.63
2023-01-19T23:06:46.969Z,10.07
2023-01-19T23:09:15.442Z,10.20
2023-01-19T23:11:45.073Z,10.10
2023-01-19T23:14:15.773Z,9.73
2023-01-19T23:16:43.871Z,9.30
2023-01-19T23:19:12.685Z,10.03
2023-01-19T23:21:41.069Z,11.03
2023-01-19T23:24:09.261Z,10.37
2023-01-19T23:26:38.541Z,10.20
2023-01-19T23:29:07.648Z,10.23
2023-01-19T23:31:38.888Z,10.23
2023-01-19T23:34:07.715Z,10.57
2023-01-19T23:36:36.683Z,9.60
2023-01-19T23:39:06.413Z,9.90
2023-01-19T23:41:34.925Z,10.07
2023-01-19T23:44:03.168Z,10.43
2023-01-19T23:46:31.341Z,9.87
2023-01-19T23:49:00.848Z,9.53
2023-01-19T23:51:29.935Z,9.17
2023-01-19T23:53:58.023Z,9.87
2023-01-19T23:56:26.972Z,9.63
2023-01-19T23:58:55.709Z,9.93
